Time;durP1;ratioP1;P1;durP2;ratioP2;P2;SDS_P1;SDS_P2;PMS_P1;PMS_P2;Temp;Humidity;BMP_temperature;BMP_pressure;BME280_temperature;BME280_humidity;BME280_pressure;Samples;Min_cycle;Max_cycle;Signal;HPM_P1;HPM_P2
2022/08/16 00:01:25;;;;;;;;;;;;;;;24.41;89.87;153793.56;1730788;83;20470;-60
2022/08/16 00:03:52;;;;;;;;;;;;;;;24.42;89.70;153796.19;1730799;82;20188;-60
2022/08/16 00:06:20;;;;;;;;;;;;;;;24.41;89.53;153794.91;1752529;81;21306;-60
2022/08/16 00:08:46;;;;;;;;;;;;;;;24.42;89.42;153796.19;1761080;81;20329;-60
2022/08/16 00:11:13;;;;;;;;;;;;;;;24.40;89.27;153792.28;1761526;81;20173;-76
2022/08/16 00:13:40;;;;;;;;;;;;;;;24.43;89.58;153800.14;1761255;81;20450;-60
2022/08/16 00:16:07;;;;;;;;;;;;;;;24.49;89.53;153814.56;1761223;81;20376;-60
2022/08/16 00:18:33;;;;;;;;;;;;;;;24.51;89.11;153819.78;1750562;81;21246;-59
2022/08/16 00:21:00;;;;;;;;;;;;;;;24.51;89.00;153819.78;1731424;82;20465;-76
2022/08/16 00:23:26;;;;;;;;;;;;;;;24.46;88.70;153806.70;1731519;83;20373;-77
2022/08/16 00:25:53;;;;;;;;;;;;;;;24.41;89.27;153793.56;1731562;83;20183;-76
2022/08/16 00:28:20;;;;;;;;;;;;;;;24.38;89.26;153787.06;1731702;83;20160;-75
2022/08/16 00:30:47;;;;;;;;;;;;;;;24.33;89.54;153773.97;1731453;83;21154;-76
2022/08/16 00:33:13;;;;;;;;;;;;;;;24.32;89.63;153772.64;1732617;83;20204;-76
2022/08/16 00:35:40;;;;;;;;;;;;;;;24.34;89.57;153775.25;1735193;82;20144;-76
2022/08/16 00:38:07;;;;;;;;;;;;;;;24.36;89.80;153781.81;1737523;82;20167;-60
2022/08/16 00:40:42;;;;;;;;;;;;;;;24.43;89.78;153798.86;1736588;82;20198;-61
2022/08/16 00:43:12;;;;;;;;;;;;;;;24.47;89.87;153809.33;1737490;82;21874;-76
2022/08/16 00:45:43;;;;;;;;;;;;;;;24.51;89.70;153818.45;1737484;82;20132;-76
2022/08/16 00:48:10;;;;;;;;;;;;;;;24.51;89.76;153819.78;1737572;82;20187;-76
2022/08/16 00:50:38;;;;;;;;;;;;;;;24.52;90.20;153822.41;1737835;82;20176;-75
2022/08/16 00:53:05;;;;;;;;;;;;;;;24.57;90.42;153835.48;1737276;82;20516;-75
2022/08/16 00:55:32;;;;;;;;;;;;;;;24.60;90.21;153843.34;1737296;82;21996;-75
2022/08/16 00:57:59;;;;;;;;;;;;;;;24.64;90.03;153851.19;1736768;82;20211;-60
2022/08/16 01:00:27;;;;;;;;;;;;;;;24.66;89.86;153856.48;1737303;82;20141;-76
2022/08/16 01:02:56;;;;;;;;;;;;;;;24.71;89.80;153869.56;1738082;82;20205;-75
2022/08/16 01:05:24;;;;;;;;;;;;;;;24.77;89.62;153885.31;1736703;82;20159;-61
2022/08/16 01:07:51;;;;;;;;;;;;;;;24.82;88.91;153898.41;1735812;82;21245;-61
2022/08/16 01:10:18;;;;;;;;;;;;;;;24.82;88.70;153897.13;1735548;82;20203;-60
2022/08/16 01:12:45;;;;;;;;;;;;;;;24.82;89.07;153897.13;1735786;82;20496;-60
2022/08/16 01:15:12;;;;;;;;;;;;;;;24.85;89.19;153906.25;1732175;82;20179;-61
2022/08/16 01:17:39;;;;;;;;;;;;;;;24.88;89.32;153914.16;1732197;82;20160;-61
2022/08/16 01:20:07;;;;;;;;;;;;;;;24.91;89.51;153920.67;1731957;82;21140;-60
2022/08/16 01:22:47;;;;;;;;;;;;;;;24.93;89.91;153924.63;1732768;82;20213;-60
2022/08/16 01:25:21;;;;;;;;;;;;;;;24.94;90.04;153927.25;1732559;82;32485;-60
2022/08/16 01:27:51;;;;;;;;;;;;;;;24.96;90.37;153932.48;1732750;82;20244;-60
2022/08/16 01:30:20;;;;;;;;;;;;;;;24.95;90.41;153929.86;1738458;82;20196;-60
2022/08/16 01:32:48;;;;;;;;;;;;;;;24.96;90.68;153932.48;1736264;82;21112;-60
2022/08/16 01:35:35;;;;;;;;;;;;;;;24.99;91.08;153940.33;1739433;82;20217;-60
2022/08/16 01:38:28;;;;;;;;;;;;;;;25.01;91.47;153945.56;1750747;82;20182;-58
2022/08/16 01:41:07;;;;;;;;;;;;;;;25.06;91.71;153957.38;1750773;82;20170;-61
2022/08/16 01:43:35;;;;;;;;;;;;;;;25.09;92.10;153966.56;1751526;81;20229;-58
2022/08/16 01:46:03;;;;;;;;;;;;;;;25.12;92.39;153974.41;1751076;82;21229;-59
2022/08/16 01:48:31;;;;;;;;;;;;;;;25.14;92.88;153978.31;1750875;82;20193;-59
2022/08/16 01:50:58;;;;;;;;;;;;;;;25.18;93.29;153988.78;1751260;81;20451;-60
2022/08/16 01:53:26;;;;;;;;;;;;;;;25.21;93.48;153995.36;1751575;81;20201;-60
2022/08/16 01:56:06;;;;;;;;;;;;;;;25.25;93.58;154005.83;1751213;81;20155;-60
2022/08/16 01:58:35;;;;;;;;;;;;;;;25.25;93.70;154005.83;1751644;82;21229;-75
2022/08/16 02:01:01;;;;;;;;;;;;;;;25.25;94.15;154005.83;1749697;81;20161;-76
2022/08/16 02:03:29;;;;;;;;;;;;;;;25.26;94.08;154008.45;1751894;81;20205;-76
2022/08/16 02:05:55;;;;;;;;;;;;;;;25.25;94.25;154005.83;1733688;82;20540;-75
2022/08/16 02:08:22;;;;;;;;;;;;;;;25.24;94.43;154003.22;1719030;83;20188;-75
2022/08/16 02:10:49;;;;;;;;;;;;;;;25.22;94.85;153997.97;1720204;82;21232;-76
2022/08/16 02:13:15;;;;;;;;;;;;;;;25.27;94.83;154012.41;1703349;82;20180;-59
2022/08/16 02:15:42;;;;;;;;;;;;;;;25.26;94.60;154008.45;1765666;81;20250;-59
2022/08/16 02:18:10;;;;;;;;;;;;;;;25.20;95.13;153992.75;1752301;82;20781;-60
2022/08/16 02:20:37;;;;;;;;;;;;;;;25.16;95.63;153983.55;1734594;82;20172;-74
2022/08/16 02:23:04;;;;;;;;;;;;;;;25.11;95.86;153971.80;1753048;82;21229;-75
2022/08/16 02:25:31;;;;;;;;;;;;;;;25.05;96.48;153956.03;1734461;82;20208;-75
2022/08/16 02:27:58;;;;;;;;;;;;;;;24.96;96.81;153933.77;1753201;81;20196;-76
2022/08/16 02:30:27;;;;;;;;;;;;;;;24.88;97.31;153912.83;1734708;82;20216;-76
2022/08/16 02:32:53;;;;;;;;;;;;;;;24.81;97.84;153895.78;1753132;82;20196;-75
2022/08/16 02:35:21;;;;;;;;;;;;;;;24.75;98.47;153880.09;1734698;82;21334;-75
2022/08/16 02:37:47;;;;;;;;;;;;;;;24.67;99.02;153859.09;1752654;82;20124;-59
2022/08/16 02:40:19;;;;;;;;;;;;;;;24.61;99.74;153845.95;1733716;82;20187;-59
2022/08/16 02:42:44;;;;;;;;;;;;;;;24.57;100.00;153835.48;1751897;82;20179;-59
2022/08/16 02:45:11;;;;;;;;;;;;;;;24.57;100.00;153835.48;1733710;82;20172;-59
2022/08/16 02:47:39;;;;;;;;;;;;;;;24.63;100.00;153848.58;1752277;81;21729;-60
2022/08/16 02:50:06;;;;;;;;;;;;;;;24.65;100.00;153853.81;1733563;82;20176;-60
2022/08/16 02:52:33;;;;;;;;;;;;;;;24.61;99.74;153845.95;1752465;81;20408;-59
2022/08/16 02:55:01;;;;;;;;;;;;;;;24.58;99.97;153836.83;1733327;82;20184;-60
2022/08/16 02:57:29;;;;;;;;;;;;;;;24.58;100.00;153838.11;1752596;82;20119;-60
2022/08/16 02:59:57;;;;;;;;;;;;;;;24.57;100.00;153834.20;1733801;82;21283;-59
2022/08/16 03:02:24;;;;;;;;;;;;;;;24.56;100.00;153831.59;1750182;82;20229;-59
2022/08/16 03:04:50;;;;;;;;;;;;;;;24.59;100.00;153840.72;1753167;80;20431;-59
2022/08/16 03:07:18;;;;;;;;;;;;;;;24.63;100.00;153849.91;1773943;81;20168;-60
2022/08/16 03:09:47;;;;;;;;;;;;;;;24.71;100.00;153869.56;1784026;79;20183;-60
2022/08/16 03:12:17;;;;;;;;;;;;;;;24.70;100.00;153866.95;1724364;80;21136;-59
2022/08/16 03:14:44;;;;;;;;;;;;;;;24.66;100.00;153856.48;1722198;82;20198;-59
2022/08/16 03:17:11;;;;;;;;;;;;;;;24.64;100.00;153851.19;1740658;82;20178;-59
2022/08/16 03:19:39;;;;;;;;;;;;;;;24.61;100.00;153844.67;1736491;82;20168;-59
2022/08/16 03:22:05;;;;;;;;;;;;;;;24.60;100.00;153842.06;1738220;82;20140;-59
2022/08/16 03:24:32;;;;;;;;;;;;;;;24.67;100.00;153859.09;1710934;82;22635;-59
2022/08/16 03:27:00;;;;;;;;;;;;;;;24.66;100.00;153857.77;1738208;82;20188;-59
2022/08/16 03:29:28;;;;;;;;;;;;;;;24.68;100.00;153861.72;1738232;82;20179;-59
2022/08/16 03:31:56;;;;;;;;;;;;;;;24.74;100.00;153878.70;1738404;82;20535;-59
2022/08/16 03:34:23;;;;;;;;;;;;;;;24.81;100.00;153895.78;1738629;82;20196;-60
2022/08/16 03:36:50;;;;;;;;;;;;;;;24.89;100.00;153916.78;1738216;82;21235;-60
2022/08/16 03:39:17;;;;;;;;;;;;;;;25.00;100.00;153942.95;1738325;82;20172;-60
2022/08/16 03:41:46;;;;;;;;;;;;;;;25.14;100.00;153979.66;1738348;82;20195;-60
2022/08/16 03:44:13;;;;;;;;;;;;;;;25.27;100.00;154012.41;1738615;82;20144;-77
2022/08/16 03:46:40;;;;;;;;;;;;;;;25.35;100.00;154032.06;1738621;82;20175;-77
2022/08/16 03:49:10;;;;;;;;;;;;;;;25.38;100.00;154039.91;1738601;82;21279;-76
2022/08/16 03:51:35;;;;;;;;;;;;;;;25.42;100.00;154050.39;1738633;82;20176;-76
2022/08/16 03:54:03;;;;;;;;;;;;;;;25.45;100.00;154056.95;1738646;82;20208;-76
2022/08/16 03:56:31;;;;;;;;;;;;;;;25.45;100.00;154058.25;1738775;82;20174;-76
2022/08/16 03:58:58;;;;;;;;;;;;;;;25.49;100.00;154067.48;1738550;81;20171;-76
2022/08/16 04:01:26;;;;;;;;;;;;;;;25.57;100.00;154088.44;1738589;81;21984;-75
2022/08/16 04:03:53;;;;;;;;;;;;;;;25.71;100.00;154123.81;1738526;82;20192;-76
2022/08/16 04:06:20;;;;;;;;;;;;;;;25.85;99.15;154157.91;1736390;82;20176;-75
2022/08/16 04:08:47;;;;;;;;;;;;;;;25.92;98.19;154176.23;1735596;82;20140;-76
2022/08/16 04:11:14;;;;;;;;;;;;;;;25.98;97.75;154192.00;1735801;82;20164;-75
2022/08/16 04:13:41;;;;;;;;;;;;;;;26.06;97.35;154211.61;1735915;82;21238;-75
2022/08/16 04:16:08;;;;;;;;;;;;;;;26.16;97.03;154236.52;1728053;82;20196;-76
2022/08/16 04:18:41;;;;;;;;;;;;;;;26.28;96.57;154266.72;1726824;83;20204;-76
2022/08/16 04:21:06;;;;;;;;;;;;;;;26.42;95.99;154302.16;1726457;83;20790;-76
2022/08/16 04:23:33;;;;;;;;;;;;;;;26.53;95.09;154330.98;1726631;83;20157;-76
2022/08/16 04:25:59;;;;;;;;;;;;;;;26.65;94.07;154361.13;1726223;83;21117;-75
2022/08/16 04:28:27;;;;;;;;;;;;;;;26.76;93.36;154388.67;1725684;83;20213;-75
2022/08/16 04:30:53;;;;;;;;;;;;;;;26.88;92.66;154420.22;1725953;83;20504;-76
2022/08/16 04:33:20;;;;;;;;;;;;;;;27.05;91.75;154462.14;1725515;83;20187;-60
2022/08/16 04:35:47;;;;;;;;;;;;;;;27.19;90.57;154497.59;1725176;83;20199;-59
2022/08/16 04:38:14;;;;;;;;;;;;;;;27.29;89.30;154523.81;1779931;80;21243;-61
2022/08/16 04:40:42;;;;;;;;;;;;;;;27.35;88.10;154538.25;1780857;80;20171;-60
2022/08/16 04:43:09;;;;;;;;;;;;;;;27.40;87.70;154551.34;1780691;80;20176;-60
2022/08/16 04:45:37;;;;;;;;;;;;;;;27.51;86.90;154577.56;1780848;80;21504;-60
2022/08/16 04:48:11;;;;;;;;;;;;;;;27.55;86.28;154588.16;1780728;79;20173;-60
2022/08/16 04:50:40;;;;;;;;;;;;;;;27.66;85.51;154615.70;1780436;79;21117;-60
2022/08/16 04:53:08;;;;;;;;;;;;;;;27.83;84.23;154658.98;1780721;79;20172;-60
2022/08/16 04:55:36;;;;;;;;;;;;;;;27.97;83.64;154695.75;1781046;80;20200;-61
2022/08/16 04:58:03;;;;;;;;;;;;;;;28.17;82.42;154745.61;1780806;80;20501;-61
2022/08/16 05:00:33;;;;;;;;;;;;;;;28.33;80.92;154785.00;1780545;80;20179;-61
2022/08/16 05:03:04;;;;;;;;;;;;;;;28.48;79.93;154824.39;1774643;80;21122;-59
2022/08/16 05:05:33;;;;;;;;;;;;;;;28.60;78.89;154854.58;1699330;83;20180;-60
2022/08/16 05:07:59;;;;;;;;;;;;;;;28.74;77.63;154890.00;1730849;83;20176;-61
2022/08/16 05:10:27;;;;;;;;;;;;;;;28.87;76.21;154924.22;1730840;83;20405;-61
2022/08/16 05:12:54;;;;;;;;;;;;;;;28.99;74.78;154953.06;1730860;83;20203;-61
2022/08/16 05:15:21;;;;;;;;;;;;;;;29.03;74.33;154963.56;1731349;82;20589;-61
2022/08/16 05:17:48;;;;;;;;;;;;;;;29.08;73.64;154975.39;1730620;83;20485;-60
2022/08/16 05:20:15;;;;;;;;;;;;;;;29.13;73.53;154989.84;1731438;83;20405;-60
2022/08/16 05:22:42;;;;;;;;;;;;;;;29.28;72.83;155026.58;1731156;83;20172;-60
2022/08/16 05:25:11;;;;;;;;;;;;;;;29.44;71.96;155067.38;1730626;83;21103;-60
2022/08/16 05:27:40;;;;;;;;;;;;;;;29.55;71.28;155094.95;1730849;83;21259;-61
2022/08/16 05:30:07;;;;;;;;;;;;;;;29.67;70.53;155126.44;1731294;83;20611;-76
2022/08/16 05:32:35;;;;;;;;;;;;;;;29.83;70.26;155165.86;1731439;83;20176;-76
2022/08/16 05:35:06;;;;;;;;;;;;;;;30.00;69.60;155210.53;1731331;82;20172;-77
2022/08/16 05:37:32;;;;;;;;;;;;;;;30.12;68.45;155239.45;1787142;80;20323;-78
2022/08/16 05:40:00;;;;;;;;;;;;;;;30.14;67.86;155244.70;1786992;80;21786;-77
2022/08/16 05:42:27;;;;;;;;;;;;;;;30.18;67.88;155255.25;1787886;80;20151;-77
2022/08/16 05:44:54;;;;;;;;;;;;;;;30.28;67.84;155281.50;1787184;80;20174;-78
2022/08/16 05:47:21;;;;;;;;;;;;;;;30.46;67.45;155326.19;1787254;80;20181;-78
2022/08/16 05:49:48;;;;;;;;;;;;;;;30.68;66.92;155382.72;1749737;80;20545;-77
2022/08/16 05:52:14;;;;;;;;;;;;;;;30.86;66.24;155427.41;1728004;82;21232;-61
2022/08/16 05:54:41;;;;;;;;;;;;;;;31.03;65.96;155470.75;1736963;82;20187;-79
2022/08/16 05:57:10;;;;;;;;;;;;;;;31.25;65.45;155526.00;1735448;82;20195;-60
2022/08/16 05:59:37;;;;;;;;;;;;;;;31.51;64.50;155591.78;1738037;82;20204;-61
2022/08/16 06:02:04;;;;;;;;;;;;;;;31.69;63.58;155637.78;1735787;82;20536;-60
2022/08/16 06:04:32;;;;;;;;;;;;;;;31.91;62.77;155694.34;1735106;82;21206;-60
2022/08/16 06:07:04;;;;;;;;;;;;;;;32.18;61.17;155761.41;1730114;81;20219;-60
2022/08/16 06:09:29;;;;;;;;;;;;;;;32.42;59.85;155823.30;1707550;82;20197;-60
2022/08/16 06:11:56;;;;;;;;;;;;;;;32.64;58.79;155879.83;1739881;82;20218;-61
2022/08/16 06:14:22;;;;;;;;;;;;;;;32.74;57.41;155903.53;1732422;82;20196;-60
2022/08/16 06:16:49;;;;;;;;;;;;;;;32.80;57.13;155919.30;1733071;82;21087;-61
2022/08/16 06:19:16;;;;;;;;;;;;;;;32.95;56.75;155958.83;1731486;82;20516;-61
2022/08/16 06:21:45;;;;;;;;;;;;;;;33.09;56.28;155994.34;1733661;81;20193;-61
2022/08/16 06:24:12;;;;;;;;;;;;;;;33.24;55.67;156031.16;1737013;81;20184;-61
2022/08/16 06:26:39;;;;;;;;;;;;;;;33.25;55.08;156033.78;1737877;81;20509;-61
2022/08/16 06:29:06;;;;;;;;;;;;;;;33.21;55.01;156023.27;1737543;81;21124;-60
2022/08/16 06:31:35;;;;;;;;;;;;;;;33.24;55.12;156031.16;1733696;81;20255;-61
2022/08/16 06:34:02;;;;;;;;;;;;;;;33.35;54.15;156060.13;1740432;81;20173;-61
2022/08/16 06:36:31;;;;;;;;;;;;;;;33.43;54.00;156079.91;1733066;81;20303;-59
2022/08/16 06:38:59;;;;;;;;;;;;;;;33.58;53.76;156118.06;1741405;81;20491;-61
2022/08/16 06:41:37;;;;;;;;;;;;;;;33.83;53.21;156182.58;1724982;81;21133;-59
2022/08/16 06:44:07;;;;;;;;;;;;;;;34.05;52.58;156236.56;1735013;81;20197;-61
2022/08/16 06:46:36;;;;;;;;;;;;;;;34.17;51.69;156268.17;1735051;81;20177;-60
2022/08/16 06:49:07;;;;;;;;;;;;;;;34.12;51.12;156256.31;1732141;81;20231;-60
2022/08/16 06:51:35;;;;;;;;;;;;;;;34.06;50.99;156240.53;1741055;81;20136;-61
2022/08/16 06:54:03;;;;;;;;;;;;;;;33.99;50.44;156223.41;1737402;81;21134;-60
2022/08/16 06:56:30;;;;;;;;;;;;;;;33.91;50.15;156202.28;1736535;81;20181;-60
2022/08/16 06:58:58;;;;;;;;;;;;;;;33.80;50.05;156174.63;1750084;81;20432;-60
2022/08/16 07:01:27;;;;;;;;;;;;;;;33.77;49.44;156166.75;1745970;80;20644;-60
2022/08/16 07:03:54;;;;;;;;;;;;;;;33.75;49.26;156160.19;1745373;80;20195;-61
2022/08/16 07:06:21;;;;;;;;;;;;;;;33.79;49.43;156170.72;1743745;80;21091;-75
2022/08/16 07:08:48;;;;;;;;;;;;;;;33.86;49.51;156189.13;1749969;80;20343;-76
2022/08/16 07:11:18;;;;;;;;;;;;;;;34.06;49.39;156239.19;1752791;80;20150;-76
2022/08/16 07:13:45;;;;;;;;;;;;;;;34.11;48.79;156253.69;1731882;81;20263;-74
2022/08/16 07:16:13;;;;;;;;;;;;;;;34.06;48.37;156239.19;1725695;81;20142;-74
2022/08/16 07:18:43;;;;;;;;;;;;;;;34.10;47.94;156249.72;1711622;82;21306;-74
2022/08/16 07:21:11;;;;;;;;;;;;;;;34.15;47.62;156262.86;1715183;82;20263;-72
2022/08/16 07:23:44;;;;;;;;;;;;;;;34.20;47.40;156276.06;1743836;80;20133;-60
2022/08/16 07:26:12;;;;;;;;;;;;;;;34.18;47.32;156270.81;1742589;81;20202;-60
2022/08/16 07:28:40;;;;;;;;;;;;;;;34.16;47.35;156265.55;1706232;82;20420;-60
2022/08/16 07:31:08;;;;;;;;;;;;;;;34.25;46.94;156289.22;1738382;81;21218;-60
2022/08/16 07:33:36;;;;;;;;;;;;;;;34.39;46.63;156323.47;1744967;82;20213;-61
2022/08/16 07:36:05;;;;;;;;;;;;;;;34.47;46.37;156344.50;1718003;82;20635;-61
2022/08/16 07:38:33;;;;;;;;;;;;;;;34.51;46.25;156355.08;1720374;81;20216;-61
2022/08/16 07:41:00;;;;;;;;;;;;;;;34.61;46.03;156378.81;1749262;81;20483;-62
2022/08/16 07:43:28;;;;;;;;;;;;;;;34.79;45.66;156426.16;1749581;80;21974;-62
2022/08/16 07:45:56;;;;;;;;;;;;;;;34.87;46.07;156444.63;1743023;80;20165;-61
2022/08/16 07:48:22;;;;;;;;;;;;;;;34.78;46.14;156422.25;1743775;80;20466;-61
2022/08/16 07:50:51;;;;;;;;;;;;;;;34.61;46.13;156378.81;1738981;81;20175;-61
2022/08/16 07:53:18;;;;;;;;;;;;;;;34.53;46.09;156359.05;1754478;80;20213;-61
2022/08/16 07:55:45;;;;;;;;;;;;;;;34.53;46.86;156360.34;1714789;82;21293;-62
2022/08/16 07:58:12;;;;;;;;;;;;;;;34.67;47.03;156395.87;1717780;82;20172;-61
2022/08/16 08:00:39;;;;;;;;;;;;;;;34.75;46.58;156415.64;1733385;82;20205;-62
2022/08/16 08:03:06;;;;;;;;;;;;;;;34.78;46.44;156422.25;1725706;82;20185;-62
2022/08/16 08:05:32;;;;;;;;;;;;;;;34.81;46.32;156431.42;1731186;81;20196;-62
2022/08/16 08:07:59;;;;;;;;;;;;;;;34.75;46.41;156415.64;1731661;82;21237;-62
2022/08/16 08:10:26;;;;;;;;;;;;;;;34.61;46.67;156378.81;1731975;82;20621;-62
2022/08/16 08:12:53;;;;;;;;;;;;;;;34.46;46.72;156341.87;1734061;82;20144;-62
2022/08/16 08:15:20;;;;;;;;;;;;;;;34.22;47.48;156281.33;1743837;81;20175;-62
2022/08/16 08:17:49;;;;;;;;;;;;;;;34.04;47.92;156233.94;1723959;82;20188;-61
2022/08/16 08:20:20;;;;;;;;;;;;;;;33.87;48.66;156191.75;1729554;82;22187;-61
2022/08/16 08:22:47;;;;;;;;;;;;;;;33.80;49.15;156173.34;1730678;82;20237;-60
2022/08/16 08:25:14;;;;;;;;;;;;;;;33.83;49.77;156182.58;1699278;83;20154;-62
2022/08/16 08:27:42;;;;;;;;;;;;;;;33.98;49.51;156220.78;1737854;80;20438;-62
2022/08/16 08:30:10;;;;;;;;;;;;;;;34.12;49.02;156254.97;1741374;82;20198;-62
2022/08/16 08:32:38;;;;;;;;;;;;;;;34.17;48.75;156268.17;1740862;80;21191;-62
2022/08/16 08:35:06;;;;;;;;;;;;;;;34.28;48.50;156295.81;1708038;82;20209;-63
2022/08/16 08:37:35;;;;;;;;;;;;;;;34.24;48.57;156286.58;1707504;83;20463;-62
2022/08/16 08:40:05;;;;;;;;;;;;;;;34.08;49.29;156244.45;1711476;82;20205;-62
2022/08/16 08:42:32;;;;;;;;;;;;;;;33.95;49.31;156211.50;1713453;83;20274;-61
2022/08/16 08:44:59;;;;;;;;;;;;;;;33.86;49.79;156189.13;1731751;82;21057;-61
2022/08/16 08:47:26;;;;;;;;;;;;;;;33.85;49.90;156186.50;1742554;80;20190;-61
2022/08/16 08:49:55;;;;;;;;;;;;;;;33.74;50.10;156157.56;1738255;80;20195;-60
2022/08/16 08:52:23;;;;;;;;;;;;;;;33.60;50.58;156121.98;1700008;82;20493;-62
2022/08/16 08:54:49;;;;;;;;;;;;;;;33.53;51.12;156106.22;1708104;82;20197;-60
2022/08/16 08:57:17;;;;;;;;;;;;;;;33.64;50.92;156133.84;1733214;81;21178;-61
2022/08/16 09:00:03;;;;;;;;;;;;;;;33.74;50.34;156157.56;1733505;82;20470;-61
2022/08/16 09:02:30;;;;;;;;;;;;;;;33.68;50.04;156144.37;1727188;82;20144;-62
2022/08/16 09:04:57;;;;;;;;;;;;;;;33.47;50.39;156090.44;1732788;81;20406;-62
2022/08/16 09:07:25;;;;;;;;;;;;;;;33.23;50.48;156029.86;1732079;81;20185;-61
2022/08/16 09:09:54;;;;;;;;;;;;;;;32.96;51.48;155961.45;1708141;82;22041;-60
2022/08/16 09:12:22;;;;;;;;;;;;;;;32.82;51.71;155924.56;1732644;82;20228;-61
2022/08/16 09:14:50;;;;;;;;;;;;;;;32.72;52.03;155899.56;1738057;81;20190;-62
2022/08/16 09:17:19;;;;;;;;;;;;;;;32.62;52.49;155873.28;1724155;81;20484;-73
2022/08/16 09:19:46;;;;;;;;;;;;;;;32.71;52.33;155896.94;1718354;82;20130;-61
2022/08/16 09:22:13;;;;;;;;;;;;;;;32.85;51.64;155933.78;1712355;83;21239;-61
2022/08/16 09:24:40;;;;;;;;;;;;;;;32.95;51.66;155957.50;1711576;83;20231;-62
2022/08/16 09:27:07;;;;;;;;;;;;;;;32.96;51.46;155961.45;1714083;83;20193;-72
2022/08/16 09:29:35;;;;;;;;;;;;;;;33.06;51.65;155986.47;1715175;83;20488;-70
2022/08/16 09:32:01;;;;;;;;;;;;;;;33.04;51.17;155981.16;1706807;83;20342;-72
2022/08/16 09:34:28;;;;;;;;;;;;;;;32.84;51.80;155931.16;1710873;83;21121;-73
2022/08/16 09:36:56;;;;;;;;;;;;;;;32.75;51.96;155906.16;1699569;83;20513;-61
2022/08/16 09:39:25;;;;;;;;;;;;;;;32.70;52.28;155894.31;1716342;83;20223;-72
2022/08/16 09:41:54;;;;;;;;;;;;;;;32.71;52.37;155898.22;1698700;83;20171;-73
2022/08/16 09:44:25;;;;;;;;;;;;;;;32.66;52.28;155883.78;1698941;83;20203;-73
2022/08/16 09:46:54;;;;;;;;;;;;;;;32.57;52.66;155862.72;1699445;83;22312;-73
2022/08/16 09:49:21;;;;;;;;;;;;;;;32.46;52.78;155833.81;1702918;83;20327;-61
2022/08/16 09:51:53;;;;;;;;;;;;;;;32.34;52.92;155802.22;1704479;83;20182;-73
2022/08/16 09:54:17;;;;;;;;;;;;;;;32.23;53.36;155774.56;1717258;83;20184;-73
2022/08/16 09:56:44;;;;;;;;;;;;;;;32.19;53.32;155765.37;1682857;84;20187;-73
2022/08/16 09:59:12;;;;;;;;;;;;;;;32.08;53.86;155736.42;1701194;82;21152;-73
2022/08/16 10:01:40;;;;;;;;;;;;;;;32.07;54.20;155733.80;1703709;82;20221;-73
2022/08/16 10:04:07;;;;;;;;;;;;;;;32.05;54.45;155728.53;1703336;82;20178;-72
2022/08/16 10:06:34;;;;;;;;;;;;;;;31.95;54.46;155703.56;1705214;82;20252;-71
2022/08/16 10:09:02;;;;;;;;;;;;;;;31.86;54.73;155682.53;1702665;84;21029;-72
2022/08/16 10:14:14;;;;;;;;;;;;;;;32.20;54.39;155768.00;1702834;82;20222;-73
2022/08/16 10:16:44;;;;;;;;;;;;;;;32.42;53.67;155824.58;1714990;81;20695;-73
2022/08/16 10:19:09;;;;;;;;;;;;;;;32.57;52.93;155862.72;1725136;81;20231;-72
2022/08/16 10:21:36;;;;;;;;;;;;;;;32.74;52.04;155904.81;1726086;82;20209;-73
2022/08/16 10:24:04;;;;;;;;;;;;;;;32.87;51.14;155937.70;1725635;82;21248;-71
2022/08/16 10:26:32;;;;;;;;;;;;;;;32.96;50.99;155960.12;1720874;82;20200;-72
2022/08/16 10:28:59;;;;;;;;;;;;;;;32.84;51.21;155929.81;1730740;82;20193;-72
2022/08/16 10:31:26;;;;;;;;;;;;;;;32.68;51.44;155890.34;1733063;82;20180;-72
2022/08/16 10:33:54;;;;;;;;;;;;;;;32.57;51.79;155861.42;1729531;82;20624;-71
2022/08/16 10:36:21;;;;;;;;;;;;;;;32.50;52.21;155844.31;1731244;82;21299;-73
2022/08/16 10:38:48;;;;;;;;;;;;;;;32.56;52.19;155860.09;1728566;82;20189;-73
2022/08/16 10:41:14;;;;;;;;;;;;;;;32.60;51.85;155869.31;1722496;81;20474;-73
2022/08/16 10:43:42;;;;;;;;;;;;;;;32.58;52.01;155865.34;1741331;81;20447;-74
2022/08/16 10:46:13;;;;;;;;;;;;;;;32.60;52.35;155867.97;1709657;82;20201;-74
2022/08/16 10:48:40;;;;;;;;;;;;;;;32.64;52.38;155878.53;1724658;82;21852;-73
2022/08/16 10:51:07;;;;;;;;;;;;;;;32.56;52.41;155858.80;1722884;82;20192;-74
2022/08/16 10:53:34;;;;;;;;;;;;;;;32.49;52.42;155841.69;1731284;82;20204;-73
2022/08/16 10:56:02;;;;;;;;;;;;;;;32.41;52.91;155820.66;1692150;82;20523;-73
2022/08/16 10:58:29;;;;;;;;;;;;;;;32.43;52.88;155827.22;1743965;82;20173;-73
2022/08/16 11:00:55;;;;;;;;;;;;;;;32.48;52.69;155837.72;1739717;81;21221;-72
2022/08/16 11:03:22;;;;;;;;;;;;;;;32.37;52.86;155810.11;1741916;82;20216;-72
2022/08/16 11:05:49;;;;;;;;;;;;;;;32.27;53.17;155786.41;1741511;80;20445;-74
2022/08/16 11:08:16;;;;;;;;;;;;;;;32.22;53.07;155773.27;1742749;80;20419;-74
2022/08/16 11:10:44;;;;;;;;;;;;;;;32.21;52.95;155770.64;1744213;82;20085;-74
2022/08/16 11:13:15;;;;;;;;;;;;;;;32.29;52.66;155790.38;1744413;82;21236;-74
2022/08/16 11:15:43;;;;;;;;;;;;;;;32.32;52.67;155796.92;1744170;82;20262;-74
2022/08/16 11:18:10;;;;;;;;;;;;;;;32.32;52.13;155796.92;1750162;80;20187;-74
2022/08/16 11:20:37;;;;;;;;;;;;;;;32.17;52.29;155758.78;1749422;81;20210;-74
2022/08/16 11:23:03;;;;;;;;;;;;;;;32.15;52.06;155756.16;1749916;81;20174;-74
2022/08/16 11:25:30;;;;;;;;;;;;;;;32.20;51.99;155766.67;1748731;81;21142;-73
2022/08/16 11:27:57;;;;;;;;;;;;;;;32.28;51.72;155789.03;1746598;81;20225;-74
2022/08/16 11:30:25;;;;;;;;;;;;;;;32.26;51.37;155783.78;1751100;80;20155;-74
2022/08/16 11:32:52;;;;;;;;;;;;;;;32.23;51.48;155775.89;1747379;81;20462;-74
2022/08/16 11:35:22;;;;;;;;;;;;;;;32.15;51.57;155754.81;1745751;82;20225;-73
2022/08/16 11:38:01;;;;;;;;;;;;;;;32.01;51.78;155720.66;1746543;81;21172;-72
2022/08/16 11:40:31;;;;;;;;;;;;;;;31.84;52.24;155675.94;1748573;80;20205;-72
2022/08/16 11:42:59;;;;;;;;;;;;;;;31.63;52.85;155622.02;1750186;81;20205;-73
2022/08/16 11:45:25;;;;;;;;;;;;;;;31.54;53.19;155599.66;1748958;81;20202;-73
2022/08/16 11:47:55;;;;;;;;;;;;;;;31.48;53.44;155583.84;1733827;82;20202;-74
2022/08/16 11:50:23;;;;;;;;;;;;;;;31.44;53.58;155575.97;1749187;81;21302;-74
2022/08/16 11:52:50;;;;;;;;;;;;;;;31.40;53.34;155565.47;1736567;82;20188;-73
2022/08/16 11:55:17;;;;;;;;;;;;;;;31.32;53.28;155544.45;1738915;82;20167;-62
2022/08/16 11:57:44;;;;;;;;;;;;;;;31.23;53.60;155520.75;1731759;82;20246;-62
2022/08/16 12:00:12;;;;;;;;;;;;;;;31.18;53.80;155507.58;1739004;81;20689;-62
2022/08/16 12:02:41;;;;;;;;;;;;;;;31.16;54.01;155504.95;1740794;82;21118;-62
2022/08/16 12:05:09;;;;;;;;;;;;;;;31.15;53.97;155500.98;1739354;81;20242;-62
2022/08/16 12:07:35;;;;;;;;;;;;;;;30.98;54.12;155457.63;1737962;82;20929;-61
2022/08/16 12:10:05;;;;;;;;;;;;;;;30.76;54.73;155402.44;1734877;82;20526;-61
2022/08/16 12:12:33;;;;;;;;;;;;;;;30.56;55.40;155352.44;1734666;81;20211;-61
2022/08/16 12:14:59;;;;;;;;;;;;;;;30.41;55.65;155313.06;1729907;81;21216;-60
2022/08/16 12:17:28;;;;;;;;;;;;;;;30.29;56.00;155282.84;1712781;81;20759;-61
2022/08/16 12:19:56;;;;;;;;;;;;;;;30.32;56.12;155289.38;1746708;80;20707;-61
2022/08/16 12:22:23;;;;;;;;;;;;;;;30.38;56.12;155306.47;1746487;80;20468;-61
2022/08/16 12:24:50;;;;;;;;;;;;;;;30.42;56.04;155316.97;1741654;81;20162;-61
2022/08/16 12:27:17;;;;;;;;;;;;;;;30.47;55.98;155328.81;1736002;81;21129;-61
2022/08/16 12:29:44;;;;;;;;;;;;;;;30.44;56.08;155320.94;1745658;81;20351;-61
2022/08/16 12:32:10;;;;;;;;;;;;;;;30.43;56.40;155319.59;1748054;81;20194;-61
2022/08/16 12:34:37;;;;;;;;;;;;;;;30.51;56.29;155339.31;1736609;81;20368;-63
2022/08/16 12:37:04;;;;;;;;;;;;;;;30.59;56.12;155360.31;1725663;81;20206;-61
2022/08/16 12:39:31;;;;;;;;;;;;;;;30.58;56.23;155357.69;1695310;81;21873;-60
2022/08/16 12:41:57;;;;;;;;;;;;;;;30.56;56.50;155351.16;1726303;82;20230;-61